Babson Park, FL

10:28 PM EDT on September 14, 2014 (GMT -0400)
Highlander Data Services | Change Station
CLOSE
Current Station
Personal Weather Station
Location: Lake Wales, FL
Elevation: 157 ft
Nearby Weather Stations

Elev 157 ft 27.89 °N, 81.55 °W | Updated 1 minute ago

Partly Cloudy
Partly Cloudy
76.9 °F
Feels Like 78 °F
N
0.0
Wind Variable Wind from SSE
Gusts 0.0 mph

Today
High -- | Low -- °F
--% Chance of Precip.
Yesterday
High -- | Low -- °F
Precip. -- in
7:10 AM 7:32 PM
Waning Gibbous, 60% visible
Pressure 30.17 in
Visibility 10.0 miles
Clouds Few 12000 ft
Heat Index 78 °F
Dew Point 72 °F
Humidity 86%
Rainfall 0.02 in
Snow Depth Not available.
UV 0 out of 12
Pollen 7.60 out of 12
Ozone Good
PM2.5 Good
Flu Activity Not available.
METAR KBOW 150215Z AUTO 00000KT 10SM FEW120 24/23 A3017 RMK AO2

More Conditions Fewer Conditions

Pressure 30.17 in
Visibility 10.0 miles
Clouds Few 12000 ft
Heat Index 78 °F
Dew Point 72 °F
Humidity 86%
Rainfall 0.02 in
Snow Depth Not available.
UV 0 out of 12
Pollen 7.60 out of 12
Ozone Good
PM2.5 Good
Flu Activity Not available.
METAR KBOW 150215Z AUTO 00000KT 10SM FEW120 24/23 A3017 RMK AO2

More Conditions Fewer Conditions

10-Day Weather Forecast

Almanac

Astronomy

Sep. 14, 2014 Rise Set
Actual Time 7:10 AM EDT 7:32 PM EDT
Civil Twilight 6:47 AM EDT 7:55 PM EDT
Nautical Twilight 6:19 AM EDT 8:22 PM EDT
Astronomical Twilight 5:52 AM EDT 8:50 PM EDT
Moon 11:52 PM EDT (9/14) 12:46 PM EDT (9/14)
Length of Visible Light 13h 08m
Length of Day
12h 21m
Tomorrow will be 1m 39s shorter.
Waning Gibbous, 60% of the Moon is Illuminated
Today
Waning Gibbous
Sep 15
Last Quarter
Sep 24
New
Oct 1
First Quarter
Oct 8
Full

Today's Extremes

State Highs State Lows

Community

WunderPhotos

Upload Photos

1,753,381 photos uploaded!

Nearby

Air Quality

  Air Quality AQ Index Pollutant
Yesterday Good
OZONE
Yesterday Good
PM10
Current Good
PM2.5
Current Good
OZONE

Snow Depth

Station Depth Elevation
No new snow has been reported.

Earthquake Activity

City Distance Mag. Time & Date
No recent earthquake activity has been reported nearby.
Minimum magnitude displayed is 2.5.

Coastal Water Temperatures

Place Temperature
No Stations Reporting

Nearby Weather Stations